createdAt,value
2019-03-29T04:10:11.850Z,6.43
2019-03-29T04:11:11.825Z,6.51
2019-03-29T04:12:11.894Z,6.48
2019-03-29T04:13:11.801Z,6.41
2019-03-29T04:14:11.841Z,6.36
2019-03-29T04:15:11.801Z,6.30
2019-03-29T04:16:11.777Z,6.28
2019-03-29T04:17:11.767Z,6.21
2019-03-29T04:18:15.423Z,6.34
2019-03-29T04:19:11.749Z,6.31
2019-03-29T04:20:11.758Z,6.31
2019-03-29T04:21:11.716Z,6.36
2019-03-29T04:22:11.723Z,6.40
2019-03-29T04:23:11.730Z,6.34
2019-03-29T04:24:11.683Z,6.40
2019-03-29T04:25:11.692Z,6.33
2019-03-29T04:26:11.667Z,6.36
2019-03-29T04:27:11.661Z,6.41
2019-03-29T04:28:11.645Z,6.37
2019-03-29T04:29:11.638Z,6.21
2019-03-29T04:30:11.638Z,6.14
2019-03-29T04:31:11.627Z,6.22
2019-03-29T04:32:11.602Z,6.18
2019-03-29T04:33:11.629Z,6.25
2019-03-29T04:34:11.589Z,6.18
2019-03-29T04:35:11.607Z,6.25
2019-03-29T04:36:11.559Z,6.01
2019-03-29T04:37:11.551Z,6.00
2019-03-29T04:38:11.545Z,5.89
2019-03-29T04:39:11.528Z,5.94
2019-03-29T04:40:11.538Z,6.00
2019-03-29T04:41:11.527Z,5.96
2019-03-29T04:42:11.495Z,6.00
2019-03-29T04:43:11.482Z,6.08
2019-03-29T04:44:11.472Z,6.01
2019-03-29T04:45:11.479Z,5.96
2019-03-29T04:46:11.460Z,6.09
2019-03-29T04:47:11.469Z,5.99
2019-03-29T04:48:11.439Z,6.06
2019-03-29T04:49:11.422Z,6.09
2019-03-29T04:50:11.528Z,6.04
2019-03-29T04:51:11.417Z,6.12
2019-03-29T04:52:11.466Z,6.08
2019-03-29T04:53:11.391Z,6.03
2019-03-29T04:54:11.368Z,6.01
2019-03-29T04:55:11.389Z,6.03
2019-03-29T04:56:11.350Z,6.03
2019-03-29T04:57:11.345Z,6.06
2019-03-29T04:58:11.329Z,6.08
2019-03-29T04:59:11.328Z,6.01
2019-03-29T05:00:11.321Z,6.01
2019-03-29T05:01:21.277Z,6.03
2019-03-29T05:02:11.284Z,6.01
2019-03-29T05:03:11.275Z,5.99
2019-03-29T05:04:11.266Z,6.00
2019-03-29T05:05:11.279Z,6.04
2019-03-29T05:06:11.245Z,6.04
2019-03-29T05:07:11.234Z,5.99
2019-03-29T05:08:11.224Z,6.00
2019-03-29T05:09:11.208Z,6.03
2019-03-29T05:10:21.259Z,5.99
2019-03-29T05:11:12.206Z,6.03
2019-03-29T05:12:11.179Z,5.94
2019-03-29T05:13:11.166Z,5.93
2019-03-29T05:14:11.157Z,5.94
2019-03-29T05:15:11.162Z,5.97
2019-03-29T05:16:11.138Z,5.94
2019-03-29T05:17:11.141Z,5.96
2019-03-29T05:18:11.129Z,5.86
2019-03-29T05:19:11.109Z,5.83
2019-03-29T05:20:11.113Z,6.00
2019-03-29T05:21:11.153Z,5.90
2019-03-29T05:22:11.072Z,5.94
2019-03-29T05:23:11.069Z,5.91
2019-03-29T05:24:11.061Z,5.86
2019-03-29T05:25:11.076Z,5.91
2019-03-29T05:26:11.034Z,5.85
2019-03-29T05:27:11.031Z,5.82
2019-03-29T05:28:11.010Z,5.83
2019-03-29T05:29:11.003Z,5.86
2019-03-29T05:30:11.018Z,5.78
2019-03-29T05:31:10.975Z,5.75
2019-03-29T05:32:10.969Z,5.81
2019-03-29T05:33:10.982Z,5.79
2019-03-29T05:34:10.944Z,5.79
2019-03-29T05:35:10.952Z,5.68
2019-03-29T05:36:10.930Z,5.79
2019-03-29T05:37:10.914Z,5.72
2019-03-29T05:38:10.908Z,5.75
2019-03-29T05:39:10.899Z,5.72
2019-03-29T05:40:10.914Z,5.65
2019-03-29T05:41:10.873Z,5.74
2019-03-29T05:42:10.873Z,5.74
2019-03-29T05:43:10.858Z,5.71
2019-03-29T05:44:10.862Z,5.74
2019-03-29T05:45:10.847Z,5.82
2019-03-29T05:46:10.825Z,5.82
2019-03-29T05:47:10.810Z,5.90
2019-03-29T05:48:11.839Z,5.94
2019-03-29T05:49:10.786Z,5.97
2019-03-29T05:50:10.791Z,5.99
2019-03-29T05:51:10.805Z,6.03
2019-03-29T05:52:10.754Z,5.97
2019-03-29T05:53:10.746Z,5.99
2019-03-29T05:54:10.743Z,5.94
2019-03-29T05:55:10.847Z,5.85
2019-03-29T05:56:10.729Z,5.97
2019-03-29T05:57:10.702Z,5.96
2019-03-29T05:58:10.693Z,6.01
2019-03-29T05:59:10.687Z,6.06
2019-03-29T06:00:10.678Z,6.12
2019-03-29T06:01:10.682Z,6.15
2019-03-29T06:02:10.658Z,6.11
2019-03-29T06:03:10.642Z,6.18
2019-03-29T06:04:10.627Z,6.09
2019-03-29T06:05:10.620Z,6.12
2019-03-29T06:06:10.628Z,6.04
2019-03-29T06:07:10.598Z,6.00
2019-03-29T06:08:10.589Z,6.00
2019-03-29T06:09:10.575Z,6.04
2019-03-29T06:10:10.564Z,6.14
2019-03-29T06:11:10.672Z,6.22
2019-03-29T06:12:10.546Z,6.15
2019-03-29T06:13:10.532Z,6.19
2019-03-29T06:14:10.527Z,6.21
2019-03-29T06:15:10.515Z,6.38
2019-03-29T06:16:10.535Z,6.44
2019-03-29T06:17:10.495Z,6.41
2019-03-29T06:18:10.481Z,6.48
2019-03-29T06:19:10.470Z,6.51
2019-03-29T06:20:10.461Z,6.59
2019-03-29T06:21:10.470Z,6.62
2019-03-29T06:22:10.440Z,6.71
2019-03-29T06:23:10.429Z,6.69
2019-03-29T06:24:10.418Z,6.74
2019-03-29T06:25:10.409Z,6.74
2019-03-29T06:26:10.413Z,6.70
2019-03-29T06:27:10.384Z,6.79
2019-03-29T06:28:10.374Z,6.73
2019-03-29T06:29:10.367Z,6.81
2019-03-29T06:30:10.361Z,6.84
2019-03-29T06:31:10.361Z,6.87
2019-03-29T06:32:10.335Z,6.76
2019-03-29T06:33:10.323Z,6.74
2019-03-29T06:34:10.315Z,6.95
2019-03-29T06:35:10.302Z,6.80
2019-03-29T06:36:10.311Z,6.91
2019-03-29T06:37:10.300Z,7.05
2019-03-29T06:38:10.275Z,7.02
2019-03-29T06:39:10.259Z,7.07
2019-03-29T06:40:10.249Z,7.10
2019-03-29T06:41:10.293Z,7.12
2019-03-29T06:42:10.229Z,7.20
2019-03-29T06:43:10.237Z,7.25
2019-03-29T06:44:10.210Z,7.37
2019-03-29T06:45:10.204Z,7.35
2019-03-29T06:46:10.210Z,7.40
2019-03-29T06:47:10.179Z,7.39
2019-03-29T06:48:10.176Z,7.40
2019-03-29T06:49:10.158Z,7.52
2019-03-29T06:50:10.151Z,7.35
2019-03-29T06:51:10.157Z,7.42
2019-03-29T06:52:10.144Z,7.43
2019-03-29T06:53:10.118Z,7.57
2019-03-29T06:54:10.112Z,7.57
2019-03-29T06:55:10.109Z,7.61
2019-03-29T06:56:10.107Z,7.71
2019-03-29T06:57:10.078Z,7.71
2019-03-29T06:58:10.068Z,7.85
2019-03-29T06:59:10.058Z,7.89
2019-03-29T07:00:10.048Z,7.89
2019-03-29T07:01:10.059Z,8.04
2019-03-29T07:02:10.026Z,8.07
2019-03-29T07:03:10.034Z,8.16
2019-03-29T07:04:10.006Z,7.98
2019-03-29T07:05:09.996Z,8.20
2019-03-29T07:06:10.078Z,8.22
2019-03-29T07:07:09.981Z,8.34
2019-03-29T07:08:09.991Z,8.28
2019-03-29T07:09:09.961Z,8.40
2019-03-29T07:10:09.951Z,8.52
2019-03-29T07:11:17.151Z,8.61
2019-03-29T07:12:10.936Z,8.66
2019-03-29T07:13:09.923Z,8.71
2019-03-29T07:14:09.919Z,8.98
2019-03-29T07:15:09.895Z,9.02
2019-03-29T07:16:09.917Z,9.04
2019-03-29T07:17:10.440Z,9.13
2019-03-29T07:18:09.872Z,9.20
2019-03-29T07:19:09.857Z,9.35
2019-03-29T07:20:09.859Z,9.47
2019-03-29T07:21:20.811Z,9.58
2019-03-29T07:22:10.823Z,9.74
2019-03-29T07:23:09.813Z,9.83
2019-03-29T07:24:09.813Z,9.83
2019-03-29T07:25:09.800Z,9.91
2019-03-29T07:26:09.807Z,10.12
2019-03-29T07:27:09.786Z,10.17
2019-03-29T07:28:09.762Z,10.30
2019-03-29T07:29:09.754Z,10.51
2019-03-29T07:30:09.741Z,10.59
2019-03-29T07:31:09.758Z,10.68
2019-03-29T07:32:09.735Z,10.89
2019-03-29T07:33:09.711Z,10.99
2019-03-29T07:34:09.700Z,11.00
2019-03-29T07:35:09.687Z,11.17
2019-03-29T07:36:09.706Z,10.97
2019-03-29T07:37:09.673Z,11.04
2019-03-29T07:38:09.674Z,10.84
2019-03-29T07:39:09.646Z,10.73
2019-03-29T07:40:09.635Z,10.85
2019-03-29T07:41:09.622Z,10.73
2019-03-29T07:42:09.642Z,10.96
2019-03-29T07:43:09.610Z,11.06
2019-03-29T07:44:09.591Z,11.10
2019-03-29T07:45:10.427Z,11.36
2019-03-29T07:46:09.572Z,11.60
2019-03-29T07:47:09.576Z,11.73
2019-03-29T07:48:09.547Z,11.80
2019-03-29T07:49:09.543Z,12.07
2019-03-29T07:50:09.543Z,12.20
2019-03-29T07:51:09.518Z,12.27
2019-03-29T07:52:09.534Z,12.59
2019-03-29T07:53:09.495Z,12.72
2019-03-29T07:54:09.491Z,12.90
2019-03-29T07:55:09.479Z,12.87
2019-03-29T07:56:09.463Z,13.00
2019-03-29T07:57:09.470Z,13.39
2019-03-29T07:58:09.451Z,13.77
2019-03-29T07:59:09.431Z,14.09
2019-03-29T08:00:09.421Z,14.20
2019-03-29T08:01:09.418Z,14.35
2019-03-29T08:02:09.419Z,14.52
2019-03-29T08:03:09.385Z,14.52
2019-03-29T08:04:09.375Z,14.27
2019-03-29T08:05:09.376Z,14.07
2019-03-29T08:06:09.356Z,14.28
2019-03-29T08:07:09.361Z,14.62
2019-03-29T08:08:22.829Z,14.50
2019-03-29T08:09:21.576Z,14.81
2019-03-29T08:10:18.970Z,15.38
2019-03-29T08:11:10.297Z,15.51
2019-03-29T08:12:09.301Z,15.16
2019-03-29T08:13:09.285Z,14.65
2019-03-29T08:14:09.266Z,14.25
2019-03-29T08:15:10.082Z,14.51
2019-03-29T08:16:09.242Z,14.60
2019-03-29T08:17:09.252Z,14.51
2019-03-29T08:18:09.219Z,14.65
2019-03-29T08:19:09.209Z,13.91
2019-03-29T08:20:37.483Z,13.67
2019-03-29T08:21:10.193Z,13.67
2019-03-29T08:22:09.192Z,13.59
2019-03-29T08:23:09.163Z,13.45
2019-03-29T08:24:09.154Z,13.57
2019-03-29T08:25:09.144Z,13.44
2019-03-29T08:26:09.132Z,13.60
2019-03-29T08:27:09.141Z,14.24
2019-03-29T08:28:09.106Z,15.31
2019-03-29T08:29:09.151Z,16.48
2019-03-29T08:30:09.088Z,17.52
2019-03-29T08:31:09.095Z,18.87
2019-03-29T08:32:09.099Z,19.91
2019-03-29T08:33:09.053Z,20.70
2019-03-29T08:34:09.043Z,20.72
2019-03-29T08:35:09.036Z,20.73
2019-03-29T08:36:09.034Z,20.85
2019-03-29T08:37:09.030Z,21.19
2019-03-29T08:38:09.000Z,21.80
2019-03-29T08:39:10.361Z,22.28
2019-03-29T08:40:08.976Z,21.99
2019-03-29T08:41:08.982Z,20.91
2019-03-29T08:42:08.981Z,20.06
2019-03-29T08:43:08.945Z,19.76
2019-03-29T08:44:11.717Z,19.88
2019-03-29T08:45:08.925Z,20.36
2019-03-29T08:46:08.915Z,21.19
2019-03-29T08:47:08.942Z,22.17
2019-03-29T08:48:08.896Z,22.47
2019-03-29T08:49:08.888Z,22.58
2019-03-29T08:50:08.876Z,22.42
2019-03-29T08:51:08.869Z,22.68
2019-03-29T08:52:08.878Z,23.46
2019-03-29T08:53:08.849Z,23.87
2019-03-29T08:54:08.838Z,24.60
2019-03-29T08:55:08.825Z,25.15
2019-03-29T08:56:08.812Z,24.96
2019-03-29T08:57:10.595Z,24.57
2019-03-29T08:58:08.787Z,25.08
2019-03-29T08:59:08.783Z,24.65
2019-03-29T09:00:08.769Z,24.02
2019-03-29T09:01:08.761Z,24.03
2019-03-29T09:02:08.768Z,24.24
2019-03-29T09:03:08.732Z,25.13
2019-03-29T09:04:08.724Z,25.91
2019-03-29T09:05:08.718Z,26.09
2019-03-29T09:06:08.711Z,26.02
2019-03-29T09:07:08.712Z,25.95
2019-03-29T09:08:08.687Z,26.21
2019-03-29T09:09:11.850Z,26.77
2019-03-29T09:10:08.663Z,26.15
2019-03-29T09:11:08.655Z,26.06
2019-03-29T09:12:14.587Z,26.40
2019-03-29T09:13:09.632Z,26.81
2019-03-29T09:14:08.618Z,27.25
2019-03-29T09:15:08.606Z,26.66
2019-03-29T09:16:08.594Z,27.29
2019-03-29T09:17:08.628Z,26.33
2019-03-29T09:18:08.575Z,25.95
2019-03-29T09:19:08.572Z,26.09
2019-03-29T09:20:10.534Z,26.50
2019-03-29T09:21:08.543Z,26.47
2019-03-29T09:22:08.536Z,26.47
2019-03-29T09:23:10.434Z,26.21
2019-03-29T09:24:21.094Z,26.40
2019-03-29T09:25:09.501Z,26.20
2019-03-29T09:26:08.492Z,26.18
2019-03-29T09:27:08.481Z,26.33
2019-03-29T09:28:08.489Z,26.92
2019-03-29T09:29:08.473Z,27.67
2019-03-29T09:30:08.451Z,28.51
2019-03-29T09:31:08.445Z,28.49
2019-03-29T09:32:08.430Z,28.81
2019-03-29T09:33:08.437Z,29.05
2019-03-29T09:34:08.412Z,27.57
2019-03-29T09:35:08.412Z,27.66
2019-03-29T09:36:08.393Z,27.72
2019-03-29T09:37:08.381Z,28.14
2019-03-29T09:38:08.389Z,28.19
2019-03-29T09:39:08.360Z,27.77
2019-03-29T09:40:08.356Z,27.81
2019-03-29T09:41:08.356Z,28.25
2019-03-29T09:42:09.745Z,28.29
2019-03-29T09:43:08.762Z,28.29
2019-03-29T09:44:08.311Z,28.24
2019-03-29T09:45:08.304Z,28.58
2019-03-29T09:46:08.313Z,29.05
2019-03-29T09:47:08.288Z,29.21
2019-03-29T09:48:08.295Z,28.30
2019-03-29T09:49:08.581Z,28.68
2019-03-29T09:50:10.313Z,29.19
2019-03-29T09:51:08.241Z,29.74
2019-03-29T09:52:08.231Z,29.90
2019-03-29T09:53:08.256Z,30.04
2019-03-29T09:54:08.209Z,30.39
2019-03-29T09:55:08.200Z,30.65
2019-03-29T09:56:08.201Z,30.70
2019-03-29T09:57:09.956Z,30.94
2019-03-29T09:58:08.191Z,30.46
2019-03-29T09:59:08.171Z,29.28
2019-03-29T10:00:19.173Z,27.31
2019-03-29T10:01:09.192Z,26.85
2019-03-29T10:02:08.131Z,27.51
2019-03-29T10:03:08.138Z,28.02
2019-03-29T10:04:08.121Z,27.84
2019-03-29T10:05:08.135Z,28.14
2019-03-29T10:06:08.094Z,27.59
2019-03-29T10:07:08.083Z,27.36
2019-03-29T10:08:08.094Z,27.65
2019-03-29T10:09:08.071Z,28.06
2019-03-29T10:10:08.064Z,27.75
2019-03-29T10:11:08.069Z,27.50
2019-03-29T10:12:08.034Z,26.54
2019-03-29T10:13:08.041Z,26.67
2019-03-29T10:14:08.019Z,26.92
2019-03-29T10:15:08.009Z,27.46
2019-03-29T10:16:07.993Z,28.22
2019-03-29T10:17:07.992Z,28.56
2019-03-29T10:18:07.992Z,29.18
2019-03-29T10:19:07.967Z,29.74
2019-03-29T10:20:07.958Z,30.07
2019-03-29T10:21:07.945Z,30.60
2019-03-29T10:22:07.937Z,30.51
2019-03-29T10:23:07.957Z,30.11
2019-03-29T10:24:07.916Z,30.38
2019-03-29T10:25:19.184Z,29.52
2019-03-29T10:26:08.900Z,29.94
2019-03-29T10:27:07.890Z,29.79
2019-03-29T10:28:07.896Z,29.51
2019-03-29T10:29:07.903Z,29.82
2019-03-29T10:30:07.857Z,28.41
2019-03-29T10:31:07.847Z,28.64
2019-03-29T10:32:09.581Z,28.12
2019-03-29T10:33:07.846Z,28.46
2019-03-29T10:34:07.826Z,29.06
2019-03-29T10:35:07.835Z,27.34
2019-03-29T10:36:07.809Z,27.27
2019-03-29T10:37:07.795Z,27.55
2019-03-29T10:38:07.781Z,28.40
2019-03-29T10:39:07.787Z,29.53
2019-03-29T10:40:07.762Z,30.60
2019-03-29T10:41:07.814Z,29.79
2019-03-29T10:42:07.743Z,30.31
2019-03-29T10:43:07.739Z,30.49
2019-03-29T10:44:07.739Z,30.58
2019-03-29T10:45:07.713Z,30.84
2019-03-29T10:46:07.708Z,30.82
2019-03-29T10:47:07.722Z,31.12
2019-03-29T10:48:07.684Z,31.28
2019-03-29T10:49:07.693Z,30.77
2019-03-29T10:50:07.664Z,30.64
2019-03-29T10:51:08.493Z,31.14
2019-03-29T10:52:07.659Z,31.51
2019-03-29T10:53:07.675Z,31.57
2019-03-29T10:54:07.648Z,31.89
2019-03-29T10:55:07.623Z,31.66
2019-03-29T10:56:07.615Z,30.26
2019-03-29T10:57:07.599Z,29.04
2019-03-29T10:58:09.650Z,28.61
2019-03-29T10:59:07.619Z,29.48
2019-03-29T11:00:07.575Z,30.16
2019-03-29T11:01:07.560Z,30.00
2019-03-29T11:02:07.551Z,30.07
2019-03-29T11:03:07.541Z,30.83
2019-03-29T11:04:07.547Z,30.76
2019-03-29T11:05:07.539Z,31.34
2019-03-29T11:06:07.523Z,31.81
2019-03-29T11:07:07.505Z,31.76
2019-03-29T11:08:11.167Z,31.41
2019-03-29T11:09:07.504Z,31.01
2019-03-29T11:10:07.481Z,31.43
2019-03-29T11:11:07.477Z,31.73
2019-03-29T11:12:07.461Z,31.36
2019-03-29T11:13:13.038Z,31.02
2019-03-29T11:14:08.455Z,31.19
2019-03-29T11:15:07.429Z,31.86
2019-03-29T11:16:07.425Z,32.33
2019-03-29T11:17:07.421Z,32.57
2019-03-29T11:18:07.400Z,32.48
2019-03-29T11:19:07.409Z,32.33
2019-03-29T11:20:07.382Z,32.65
2019-03-29T11:21:07.375Z,32.60
2019-03-29T11:22:07.360Z,32.13
2019-03-29T11:23:07.396Z,31.81
2019-03-29T11:24:09.189Z,32.25
2019-03-29T11:25:07.332Z,32.74
2019-03-29T11:26:07.323Z,32.67
2019-03-29T11:27:07.322Z,32.96
2019-03-29T11:28:07.309Z,33.37
2019-03-29T11:29:07.354Z,33.56
2019-03-29T11:30:07.284Z,33.76
2019-03-29T11:31:07.275Z,32.79
2019-03-29T11:32:07.266Z,32.13
2019-03-29T11:33:07.262Z,31.53
2019-03-29T11:34:07.282Z,31.46
2019-03-29T11:35:07.266Z,30.07
2019-03-29T11:36:07.228Z,29.34
2019-03-29T11:37:07.254Z,29.39
2019-03-29T11:38:07.207Z,29.78
2019-03-29T11:39:07.287Z,30.46
2019-03-29T11:40:07.211Z,31.29
2019-03-29T11:41:07.193Z,31.17
2019-03-29T11:42:07.170Z,30.83
2019-03-29T11:43:07.162Z,30.39
2019-03-29T11:44:07.153Z,30.91
2019-03-29T11:45:07.163Z,31.44
2019-03-29T11:46:07.132Z,32.01
2019-03-29T11:47:07.137Z,32.38
2019-03-29T11:48:09.173Z,32.88
2019-03-29T11:49:07.107Z,33.11
2019-03-29T11:50:07.112Z,33.45
2019-03-29T11:51:18.710Z,33.57
2019-03-29T11:52:08.076Z,34.03
2019-03-29T11:53:07.090Z,33.44
2019-03-29T11:54:07.055Z,33.66
2019-03-29T11:55:07.063Z,33.45
2019-03-29T11:56:07.038Z,33.12
2019-03-29T11:57:07.027Z,33.47
2019-03-29T11:58:07.026Z,33.61
2019-03-29T11:59:07.057Z,33.73
2019-03-29T12:00:07.017Z,33.75
2019-03-29T12:01:06.991Z,33.66
2019-03-29T12:02:06.990Z,33.32
2019-03-29T12:03:09.154Z,32.77
2019-03-29T12:04:06.962Z,32.23
2019-03-29T12:05:07.018Z,32.65
2019-03-29T12:06:06.945Z,31.96
2019-03-29T12:07:06.935Z,31.58
2019-03-29T12:08:06.934Z,32.18
2019-03-29T12:09:06.919Z,32.70
2019-03-29T12:10:06.921Z,32.51
2019-03-29T12:11:06.931Z,32.08
2019-03-29T12:12:06.891Z,32.29
2019-03-29T12:13:06.928Z,32.45
2019-03-29T12:14:06.870Z,32.19
2019-03-29T12:15:06.875Z,31.99
2019-03-29T12:16:06.850Z,31.75
2019-03-29T12:17:06.841Z,30.95
2019-03-29T12:18:06.847Z,30.51
2019-03-29T12:19:06.821Z,30.51
2019-03-29T12:20:06.829Z,29.89
2019-03-29T12:21:06.904Z,29.16
2019-03-29T12:22:06.800Z,28.59
2019-03-29T12:23:06.788Z,28.98
2019-03-29T12:24:06.796Z,29.73
2019-03-29T12:25:06.793Z,30.79
2019-03-29T12:26:06.767Z,31.12
2019-03-29T12:27:06.747Z,30.17
2019-03-29T12:28:06.735Z,29.87
2019-03-29T12:29:06.726Z,30.53
2019-03-29T12:30:06.753Z,30.02
2019-03-29T12:31:06.707Z,30.04
2019-03-29T12:32:06.702Z,29.52
2019-03-29T12:33:06.764Z,29.37
2019-03-29T12:34:06.684Z,28.74
2019-03-29T12:35:09.854Z,29.48
2019-03-29T12:36:06.668Z,29.74
2019-03-29T12:37:06.653Z,30.05
2019-03-29T12:38:06.642Z,29.79
2019-03-29T12:39:06.633Z,29.57
2019-03-29T12:40:06.638Z,29.55
2019-03-29T12:41:06.657Z,29.28
2019-03-29T12:42:06.613Z,29.78
2019-03-29T12:43:06.596Z,30.07
2019-03-29T12:44:06.584Z,29.98
2019-03-29T12:45:06.593Z,30.10
2019-03-29T12:46:06.570Z,30.26
2019-03-29T12:47:06.558Z,29.49
2019-03-29T12:48:06.564Z,29.06
2019-03-29T12:49:06.537Z,28.27
2019-03-29T12:50:06.545Z,27.69
2019-03-29T12:51:06.521Z,28.37
2019-03-29T12:52:06.513Z,28.19
2019-03-29T12:53:06.499Z,28.11
2019-03-29T12:54:06.502Z,27.99
2019-03-29T12:55:06.507Z,28.17
2019-03-29T12:56:06.474Z,28.30
2019-03-29T12:57:07.005Z,28.74
2019-03-29T12:58:06.456Z,28.41
2019-03-29T12:59:06.441Z,27.77
2019-03-29T13:00:06.480Z,26.87
2019-03-29T13:01:06.479Z,26.01
2019-03-29T13:02:06.423Z,25.42
2019-03-29T13:03:06.420Z,26.13
2019-03-29T13:04:09.572Z,26.33
2019-03-29T13:05:06.405Z,26.66
2019-03-29T13:06:06.384Z,27.34
2019-03-29T13:07:06.363Z,27.57
2019-03-29T13:08:06.353Z,26.67
2019-03-29T13:09:06.355Z,26.72
2019-03-29T13:10:06.352Z,26.99
2019-03-29T13:11:06.337Z,27.47
2019-03-29T13:12:06.326Z,27.39
2019-03-29T13:13:06.308Z,27.02
2019-03-29T13:14:10.675Z,27.02
2019-03-29T13:15:06.301Z,26.89
2019-03-29T13:16:06.276Z,26.63
2019-03-29T13:17:06.267Z,26.60
2019-03-29T13:18:06.265Z,26.26
2019-03-29T13:19:06.245Z,25.95
2019-03-29T13:20:06.252Z,25.87
2019-03-29T13:21:06.227Z,25.87
2019-03-29T13:22:06.221Z,25.85
2019-03-29T13:23:06.209Z,25.40
2019-03-29T13:24:06.207Z,24.62
2019-03-29T13:25:07.630Z,24.31
2019-03-29T13:26:06.177Z,23.97
2019-03-29T13:27:06.168Z,23.84
2019-03-29T13:28:06.160Z,23.88
2019-03-29T13:29:06.145Z,24.55
2019-03-29T13:30:06.179Z,25.02
2019-03-29T13:31:06.126Z,25.20
2019-03-29T13:32:06.113Z,25.42
2019-03-29T13:33:06.105Z,25.43
2019-03-29T13:34:06.104Z,25.32
2019-03-29T13:35:06.093Z,25.23
2019-03-29T13:36:06.104Z,25.50
2019-03-29T13:37:06.064Z,25.52
2019-03-29T13:38:06.053Z,25.76
2019-03-29T13:39:06.048Z,25.15
2019-03-29T13:40:06.045Z,24.91
2019-03-29T13:41:07.130Z,24.31
2019-03-29T13:42:06.024Z,23.63
2019-03-29T13:43:06.001Z,23.33
2019-03-29T13:44:05.992Z,23.19
2019-03-29T13:45:05.986Z,22.86
2019-03-29T13:46:06.064Z,22.68
2019-03-29T13:47:05.963Z,22.76
2019-03-29T13:48:05.971Z,22.92
2019-03-29T13:49:06.117Z,23.23
2019-03-29T13:50:05.929Z,23.20
2019-03-29T13:51:05.937Z,23.10
2019-03-29T13:52:05.922Z,22.58
2019-03-29T13:53:05.915Z,22.28
2019-03-29T13:54:05.901Z,22.25
2019-03-29T13:55:05.878Z,22.17
2019-03-29T13:56:05.883Z,21.90
2019-03-29T13:57:05.863Z,21.43
2019-03-29T13:58:05.869Z,21.06
2019-03-29T13:59:05.839Z,20.67
2019-03-29T14:00:05.827Z,20.58
2019-03-29T14:01:05.848Z,20.48
2019-03-29T14:02:05.809Z,20.29
2019-03-29T14:03:05.800Z,20.14
2019-03-29T14:04:05.787Z,19.94
2019-03-29T14:05:05.778Z,19.83
2019-03-29T14:06:05.781Z,19.65
2019-03-29T14:07:05.778Z,19.62
2019-03-29T14:08:05.744Z,19.68
2019-03-29T14:09:05.739Z,19.68
2019-03-29T14:10:05.723Z,19.61
2019-03-29T14:11:05.731Z,19.54
2019-03-29T14:12:05.708Z,19.51
2019-03-29T14:13:05.709Z,19.51
2019-03-29T14:14:05.689Z,19.39
2019-03-29T14:15:05.672Z,19.39
2019-03-29T14:16:05.679Z,19.43
2019-03-29T14:17:05.649Z,19.39
2019-03-29T14:18:05.645Z,19.46
2019-03-29T14:19:05.638Z,19.44
2019-03-29T14:20:05.618Z,19.40
2019-03-29T14:21:05.625Z,19.41
2019-03-29T14:22:05.596Z,19.39
2019-03-29T14:23:05.587Z,19.39
2019-03-29T14:24:05.589Z,19.28
2019-03-29T14:25:05.616Z,19.21
2019-03-29T14:26:05.587Z,19.19
2019-03-29T14:27:05.540Z,19.21
2019-03-29T14:28:05.533Z,19.22
2019-03-29T14:29:05.520Z,19.22
2019-03-29T14:30:05.668Z,19.19
2019-03-29T14:31:05.519Z,19.22
2019-03-29T14:32:05.498Z,19.25
2019-03-29T14:33:05.483Z,19.14
2019-03-29T14:34:05.467Z,18.95
2019-03-29T14:35:05.457Z,18.95
2019-03-29T14:36:05.465Z,18.95
2019-03-29T14:37:05.440Z,18.94
2019-03-29T14:38:05.436Z,18.91
2019-03-29T14:39:05.416Z,18.87
2019-03-29T14:40:05.412Z,18.91
2019-03-29T14:41:05.413Z,18.91
2019-03-29T14:42:05.388Z,18.92
2019-03-29T14:43:05.383Z,18.69
2019-03-29T14:44:05.370Z,18.82
2019-03-29T14:45:05.352Z,18.90
2019-03-29T14:46:05.379Z,18.84
2019-03-29T14:47:05.332Z,18.85
2019-03-29T14:48:05.320Z,18.82
2019-03-29T14:49:05.328Z,18.94
2019-03-29T14:50:05.307Z,18.76
2019-03-29T14:51:05.302Z,18.76
2019-03-29T14:52:05.275Z,18.78
2019-03-29T14:53:05.265Z,18.70
2019-03-29T14:54:05.260Z,18.70
2019-03-29T14:55:05.248Z,18.57
2019-03-29T14:56:05.277Z,18.62
2019-03-29T14:57:05.641Z,18.58
2019-03-29T14:58:05.215Z,18.58
2019-03-29T14:59:05.204Z,18.65
2019-03-29T15:00:05.193Z,18.69
2019-03-29T15:01:05.200Z,18.80
2019-03-29T15:02:05.179Z,18.88
2019-03-29T15:03:05.166Z,18.87
2019-03-29T15:04:05.152Z,18.90
2019-03-29T15:05:05.137Z,18.87
2019-03-29T15:06:05.162Z,18.88
2019-03-29T15:07:05.119Z,18.84
2019-03-29T15:08:05.122Z,18.84
2019-03-29T15:09:05.093Z,18.75
2019-03-29T15:10:05.090Z,18.81
2019-03-29T15:11:05.099Z,18.81
2019-03-29T15:12:06.990Z,18.82
2019-03-29T15:13:05.056Z,18.75
2019-03-29T15:14:05.044Z,18.76
2019-03-29T15:15:06.371Z,18.75
2019-03-29T15:16:05.043Z,18.69
2019-03-29T15:17:05.023Z,18.66
2019-03-29T15:18:05.000Z,18.70
2019-03-29T15:19:05.004Z,18.65
2019-03-29T15:20:04.984Z,18.73
2019-03-29T15:21:05.031Z,18.75
2019-03-29T15:22:04.967Z,18.63
2019-03-29T15:23:05.020Z,18.66
2019-03-29T15:24:04.939Z,18.63
2019-03-29T15:25:04.933Z,18.73
2019-03-29T15:26:04.914Z,18.70
2019-03-29T15:27:04.920Z,18.69
2019-03-29T15:28:04.905Z,18.63
2019-03-29T15:29:04.909Z,18.63
2019-03-29T15:30:04.870Z,18.72
2019-03-29T15:31:04.869Z,18.72
2019-03-29T15:32:04.869Z,18.67
2019-03-29T15:33:04.839Z,18.58
2019-03-29T15:34:04.835Z,18.65
2019-03-29T15:35:04.891Z,18.55
2019-03-29T15:36:04.807Z,18.52
2019-03-29T15:37:04.811Z,18.51
2019-03-29T15:38:04.787Z,18.44
2019-03-29T15:39:04.775Z,18.45
2019-03-29T15:40:04.838Z,18.51
2019-03-29T15:41:04.758Z,18.65
2019-03-29T15:42:04.764Z,18.58
2019-03-29T15:43:04.745Z,18.55
2019-03-29T15:44:04.722Z,18.58
2019-03-29T15:45:04.713Z,18.55
2019-03-29T15:46:04.704Z,18.58
2019-03-29T15:47:04.708Z,18.55
2019-03-29T15:48:04.681Z,18.70
2019-03-29T15:49:04.673Z,18.57
2019-03-29T15:50:04.686Z,18.57
2019-03-29T15:51:04.647Z,18.58
2019-03-29T15:52:04.651Z,18.55
2019-03-29T15:53:04.628Z,18.55
2019-03-29T15:54:04.618Z,18.58
2019-03-29T15:55:04.610Z,18.48
2019-03-29T15:56:04.603Z,18.42
2019-03-29T15:57:04.601Z,18.57
2019-03-29T15:58:04.571Z,18.47
2019-03-29T15:59:04.641Z,18.47
2019-03-29T16:00:04.552Z,18.48
2019-03-29T16:01:04.545Z,18.52
2019-03-29T16:02:04.569Z,18.41
2019-03-29T16:03:04.524Z,18.35
2019-03-29T16:04:04.506Z,18.33
2019-03-29T16:05:04.498Z,18.23
2019-03-29T16:06:04.486Z,18.25
2019-03-29T16:07:04.490Z,18.18
2019-03-29T16:08:04.473Z,18.17
2019-03-29T16:09:04.461Z,18.18
2019-03-29T16:10:04.445Z,18.25
2019-03-29T16:11:04.433Z,18.18
2019-03-29T16:12:04.437Z,18.18
2019-03-29T16:13:04.446Z,18.27
2019-03-29T16:14:04.397Z,18.21
2019-03-29T16:15:04.396Z,18.17
2019-03-29T16:16:04.393Z,18.27
2019-03-29T16:17:04.393Z,18.18
2019-03-29T16:18:04.359Z,18.25
2019-03-29T16:19:04.350Z,18.21
2019-03-29T16:20:04.345Z,18.21
2019-03-29T16:21:04.326Z,18.11
2019-03-29T16:22:05.982Z,18.10
2019-03-29T16:23:04.308Z,18.08
2019-03-29T16:24:04.292Z,18.07
2019-03-29T16:25:04.296Z,18.07
2019-03-29T16:26:04.277Z,18.05
2019-03-29T16:27:04.276Z,18.05
2019-03-29T16:28:04.249Z,18.10
2019-03-29T16:29:04.238Z,18.14
2019-03-29T16:30:04.242Z,18.11
2019-03-29T16:31:04.223Z,18.07
2019-03-29T16:32:04.249Z,18.05
2019-03-29T16:33:04.199Z,18.07
2019-03-29T16:34:04.219Z,18.05
2019-03-29T16:35:04.175Z,18.12
2019-03-29T16:36:04.165Z,18.08
2019-03-29T16:37:04.180Z,18.10
2019-03-29T16:38:04.146Z,18.05
2019-03-29T16:39:04.131Z,17.92
2019-03-29T16:40:04.123Z,17.99
2019-03-29T16:41:04.109Z,17.87
2019-03-29T16:42:04.124Z,17.92
2019-03-29T16:43:04.108Z,17.97
2019-03-29T16:44:04.076Z,18.03
2019-03-29T16:45:04.068Z,17.93
2019-03-29T16:46:04.064Z,18.02
2019-03-29T16:47:04.073Z,17.99
2019-03-29T16:48:06.627Z,17.87
2019-03-29T16:49:04.030Z,18.03
2019-03-29T16:50:04.014Z,18.03
2019-03-29T16:51:04.009Z,17.97
2019-03-29T16:52:04.023Z,17.89
2019-03-29T16:53:03.986Z,17.90
2019-03-29T16:54:05.711Z,17.92
2019-03-29T16:55:13.140Z,17.89
2019-03-29T16:56:04.944Z,17.93
2019-03-29T16:57:03.954Z,17.96
2019-03-29T16:58:03.944Z,17.97
2019-03-29T16:59:03.917Z,17.95
2019-03-29T17:00:03.916Z,18.00
2019-03-29T17:01:03.898Z,17.93
2019-03-29T17:02:03.905Z,17.96
2019-03-29T17:03:03.870Z,17.86
2019-03-29T17:04:03.875Z,17.82
2019-03-29T17:05:03.852Z,17.92
2019-03-29T17:06:03.841Z,17.84
2019-03-29T17:07:03.845Z,17.90
2019-03-29T17:08:05.465Z,17.84
2019-03-29T17:09:03.819Z,17.84